Weather at Barker Strip

Public forecast

Using degrees Fahrenheit for public forecast. Weather courtesy of forecast.io.

Closest aviation weather report (METAR) to Barker Strip

Closest report is Burlington Municipal Airport, 6.7 nm (12.5 km) ESE. Retrieved 2021/06/25 04:15 UTC (24 minutes ago):

KBUU 250415Z AUTO 00000KT 10SM 21/20 A2997 RMK AO2 T02070195 PWINO

Closest aviation forecast (TAF) to Barker Strip

Closest forecast is Waukesha County Airport, 19.8 nm (36.7 km) NNE. Retrieved 2021-06-25 00:46 UTC (4 hours ago):

TAF KUES 242344Z 2500/2524 19012G18KT P6SM OVC050 FM250200 19009KT P6SM OVC025 FM250300 19007KT P6SM OVC009 FM250600 19005KT 6SM -SHRA BR VCTS OVC005CB FM251600 30005KT P6SM OVC007 FM251800 29005KT P6SM OVC010